Time;durP1;ratioP1;P1;durP2;ratioP2;P2;SDS_P1;SDS_P2;PMS_P1;PMS_P2;Temp;Humidity;BMP_temperature;BMP_pressure;BME280_temperature;BME280_humidity;BME280_pressure;Samples;Min_cycle;Max_cycle;Signal;HPM_P1;HPM_P2
2021/10/10 00:00:19;;;;;;;16.40;12.35;;;8.80;99.90;;;;;;5056154;28;20514;-88
2021/10/10 00:02:46;;;;;;;15.85;11.75;;;8.70;99.90;;;;;;5056364;28;20114;-87
2021/10/10 00:05:14;;;;;;;15.40;11.45;;;8.70;99.90;;;;;;5056022;28;20116;-88
2021/10/10 00:07:41;;;;;;;15.70;11.15;;;8.60;99.90;;;;;;5056243;28;20108;-87
2021/10/10 00:10:12;;;;;;;14.77;10.50;;;8.60;99.90;;;;;;5073638;28;20420;-87
2021/10/10 00:12:38;;;;;;;13.98;10.25;;;8.60;99.90;;;;;;5055602;28;20487;-87
2021/10/10 00:15:07;;;;;;;16.15;11.38;;;8.60;99.90;;;;;;5038930;28;20115;-87
2021/10/10 00:17:34;;;;;;;13.13;9.63;;;8.60;99.90;;;;;;5055989;28;20029;-88
2021/10/10 00:20:00;;;;;;;14.48;9.80;;;8.60;99.90;;;;;;5072754;28;20075;-87
2021/10/10 00:22:27;;;;;;;15.75;10.35;;;8.60;99.90;;;;;;5055768;28;20029;-87
2021/10/10 00:24:52;;;;;;;15.43;11.68;;;8.60;99.90;;;;;;5055981;28;20039;-87
2021/10/10 00:27:19;;;;;;;15.38;10.57;;;8.60;99.90;;;;;;5053367;28;20028;-87
2021/10/10 00:29:45;;;;;;;15.32;10.95;;;8.60;99.90;;;;;;5052323;28;20040;-88
2021/10/10 00:32:11;;;;;;;15.60;11.40;;;8.60;99.90;;;;;;5055107;28;20035;-88
2021/10/10 00:34:38;;;;;;;15.43;11.38;;;8.60;99.90;;;;;;5055321;28;20044;-89
2021/10/10 00:37:03;;;;;;;15.23;11.07;;;8.60;99.90;;;;;;5068836;28;20025;-87
2021/10/10 00:39:29;;;;;;;14.32;11.07;;;8.60;99.90;;;;;;5069978;28;20053;-87
2021/10/10 00:41:55;;;;;;;16.85;12.02;;;8.60;99.90;;;;;;5073378;28;20025;-88
2021/10/10 00:44:20;;;;;;;15.38;11.45;;;8.60;99.90;;;;;;5072880;28;20120;-88
2021/10/10 00:46:46;;;;;;;16.23;11.50;;;8.50;99.90;;;;;;5076723;28;20542;-88
2021/10/10 00:49:11;;;;;;;14.57;11.15;;;8.50;99.90;;;;;;5072654;28;20033;-88
2021/10/10 00:51:43;;;;;;;14.45;11.20;;;8.40;99.90;;;;;;5075351;28;20032;-88
2021/10/10 00:54:13;;;;;;;15.05;10.75;;;8.40;99.90;;;;;;5058752;28;20035;-88
2021/10/10 00:56:40;;;;;;;13.73;10.07;;;8.40;99.90;;;;;;5058597;28;20464;-90
2021/10/10 00:59:07;;;;;;;17.50;11.50;;;8.30;99.90;;;;;;5058754;28;20055;-89
2021/10/10 01:01:33;;;;;;;16.80;11.45;;;8.30;99.90;;;;;;5076343;28;20146;-88
2021/10/10 01:03:59;;;;;;;16.40;11.68;;;8.30;99.90;;;;;;5058559;28;20044;-90
2021/10/10 01:06:25;;;;;;;16.52;12.43;;;8.30;99.90;;;;;;5051131;28;20121;-89
2021/10/10 01:08:52;;;;;;;15.50;12.25;;;8.20;99.90;;;;;;5056333;28;20169;-89
2021/10/10 01:11:19;;;;;;;19.13;12.00;;;8.20;99.90;;;;;;5069825;28;20090;-88
2021/10/10 01:13:46;;;;;;;16.65;11.73;;;8.20;99.90;;;;;;5069340;28;20031;-90
2021/10/10 01:16:11;;;;;;;16.73;11.68;;;8.10;99.90;;;;;;5058654;28;20082;-88
2021/10/10 01:18:37;;;;;;;15.80;12.30;;;8.10;99.90;;;;;;5075656;28;20059;-88
2021/10/10 01:21:03;;;;;;;16.02;11.07;;;8.10;99.90;;;;;;5072256;28;20140;-87
2021/10/10 01:23:29;;;;;;;16.35;11.65;;;8.10;99.90;;;;;;5060579;28;20104;-87
2021/10/10 01:25:55;;;;;;;15.98;11.27;;;8.00;99.90;;;;;;5041420;28;20091;-87
2021/10/10 01:31:56;;;;;;;16.63;11.00;;;8.00;99.90;;;;;;5070503;28;20039;-88
2021/10/10 01:34:22;;;;;;;16.67;11.50;;;7.90;99.90;;;;;;5076572;28;20029;-87
2021/10/10 01:36:48;;;;;;;13.07;9.77;;;7.90;99.90;;;;;;5069671;28;20413;-86
2021/10/10 01:39:13;;;;;;;14.63;11.40;;;7.90;99.90;;;;;;5067003;28;20036;-87
2021/10/10 01:41:39;;;;;;;14.23;10.88;;;7.90;99.90;;;;;;5073450;28;20123;-87
2021/10/10 01:44:12;;;;;;;16.45;11.52;;;7.80;99.90;;;;;;5074689;28;20111;-87
2021/10/10 01:46:38;;;;;;;15.85;11.57;;;7.80;99.90;;;;;;5057294;28;20024;-87
2021/10/10 01:49:04;;;;;;;15.02;10.93;;;7.80;99.90;;;;;;5073797;28;20655;-87
2021/10/10 01:51:29;;;;;;;14.88;10.82;;;7.70;99.90;;;;;;5041271;28;20483;-87
2021/10/10 01:53:55;;;;;;;13.57;10.23;;;7.70;99.90;;;;;;5075071;28;20522;-87
2021/10/10 01:56:20;;;;;;;13.77;10.30;;;7.70;99.90;;;;;;5075142;28;20025;-87
2021/10/10 01:58:46;;;;;;;14.82;10.75;;;7.70;99.90;;;;;;5075935;28;20064;-88
2021/10/10 02:01:12;;;;;;;14.00;10.20;;;7.70;99.90;;;;;;5074043;28;20045;-88
2021/10/10 02:03:37;;;;;;;15.10;10.40;;;7.60;99.90;;;;;;5074862;28;20035;-86
2021/10/10 02:06:03;;;;;;;14.73;10.38;;;7.60;99.90;;;;;;5058260;28;20112;-87
2021/10/10 02:08:29;;;;;;;13.18;9.63;;;7.60;99.90;;;;;;5074637;28;20025;-87
2021/10/10 02:10:54;;;;;;;14.57;10.43;;;7.50;99.90;;;;;;5074503;28;20079;-87
2021/10/10 02:13:20;;;;;;;13.88;10.40;;;7.50;99.90;;;;;;5074517;28;20544;-87
2021/10/10 02:15:46;;;;;;;15.20;10.38;;;7.50;99.90;;;;;;5074493;28;20052;-88
2021/10/10 02:18:11;;;;;;;14.52;9.95;;;7.40;99.90;;;;;;5074353;28;20032;-88
2021/10/10 02:20:37;;;;;;;14.68;9.95;;;7.40;99.90;;;;;;5074188;28;20039;-88
2021/10/10 02:23:03;;;;;;;15.38;10.30;;;7.40;99.90;;;;;;5057663;28;20542;-88
2021/10/10 02:25:29;;;;;;;14.73;10.48;;;7.40;99.90;;;;;;5074084;28;20028;-87
2021/10/10 02:27:55;;;;;;;14.70;11.07;;;7.40;99.90;;;;;;5074407;28;20027;-87
2021/10/10 02:30:21;;;;;;;14.98;10.88;;;7.40;99.90;;;;;;5075091;28;20039;-87
2021/10/10 02:32:47;;;;;;;13.55;10.15;;;7.30;99.90;;;;;;5075450;28;20040;-87
2021/10/10 02:35:12;;;;;;;15.07;10.48;;;7.30;99.90;;;;;;5040778;28;20028;-88
2021/10/10 02:37:39;;;;;;;13.50;10.07;;;7.30;99.90;;;;;;5073961;28;20017;-88
2021/10/10 02:40:07;;;;;;;14.63;10.57;;;7.30;99.90;;;;;;5057531;28;20035;-87
2021/10/10 02:42:33;;;;;;;13.40;10.18;;;7.30;99.90;;;;;;5074842;28;20372;-87
2021/10/10 02:45:03;;;;;;;15.27;11.05;;;7.30;99.90;;;;;;5057088;28;20038;-87
2021/10/10 02:47:28;;;;;;;15.15;10.88;;;7.30;99.90;;;;;;5074604;28;20032;-87
2021/10/10 02:49:54;;;;;;;16.02;11.40;;;7.30;99.90;;;;;;5073936;28;20028;-87
2021/10/10 02:52:21;;;;;;;16.25;11.85;;;7.20;99.90;;;;;;5073862;28;20423;-88
2021/10/10 02:54:47;;;;;;;15.30;10.52;;;7.20;99.90;;;;;;5075208;28;20115;-89
2021/10/10 02:57:12;;;;;;;13.82;9.82;;;7.20;99.90;;;;;;5073540;28;20123;-87
2021/10/10 02:59:38;;;;;;;13.85;10.45;;;7.10;99.90;;;;;;5073678;28;20102;-88
2021/10/10 03:02:04;;;;;;;15.30;10.75;;;7.10;99.90;;;;;;5073851;28;20032;-87
2021/10/10 03:04:30;;;;;;;14.63;10.45;;;7.10;99.90;;;;;;5077855;28;20035;-88
2021/10/10 03:06:56;;;;;;;13.95;9.93;;;7.10;99.90;;;;;;5073004;28;20055;-87
2021/10/10 03:09:22;;;;;;;14.18;10.52;;;7.10;99.90;;;;;;5074458;28;20028;-87
2021/10/10 03:11:47;;;;;;;12.90;9.88;;;7.10;99.90;;;;;;5056635;28;20138;-87
2021/10/10 03:14:13;;;;;;;14.65;10.02;;;7.00;99.90;;;;;;5073229;28;20078;-87
2021/10/10 03:16:39;;;;;;;13.82;10.50;;;7.10;99.90;;;;;;5074500;28;20029;-87
2021/10/10 03:19:04;;;;;;;15.02;11.10;;;7.00;99.90;;;;;;5074332;28;20025;-87
2021/10/10 03:21:30;;;;;;;15.38;10.38;;;7.00;99.90;;;;;;5073392;28;20375;-87
2021/10/10 03:23:57;;;;;;;13.10;10.25;;;6.90;99.90;;;;;;5073176;28;20059;-88
2021/10/10 03:26:23;;;;;;;14.50;10.52;;;6.90;99.90;;;;;;5072894;28;20031;-87
2021/10/10 03:28:49;;;;;;;16.13;10.55;;;6.90;99.90;;;;;;5056656;28;20032;-88
2021/10/10 03:31:15;;;;;;;12.38;9.27;;;6.80;99.90;;;;;;5072780;28;20079;-87
2021/10/10 03:33:41;;;;;;;14.15;9.45;;;6.90;99.90;;;;;;5074469;28;20467;-88
2021/10/10 03:36:06;;;;;;;11.38;8.57;;;6.80;99.90;;;;;;5073909;28;20522;-87
2021/10/10 03:38:32;;;;;;;10.80;8.07;;;6.80;99.90;;;;;;5073105;28;20054;-87
2021/10/10 03:40:58;;;;;;;9.85;7.78;;;6.80;99.90;;;;;;5073016;28;20035;-87
2021/10/10 03:43:24;;;;;;;10.65;7.47;;;6.80;99.90;;;;;;5056288;28;20186;-87
2021/10/10 03:45:50;;;;;;;9.27;7.15;;;6.80;99.90;;;;;;5039676;28;20039;-87
2021/10/10 03:48:16;;;;;;;8.73;6.97;;;6.80;99.90;;;;;;5072788;28;20028;-87
2021/10/10 03:50:42;;;;;;;9.07;7.43;;;6.70;99.90;;;;;;5073771;28;20052;-88
2021/10/10 03:53:08;;;;;;;8.00;6.55;;;6.70;99.90;;;;;;5039591;28;20033;-88
2021/10/10 03:55:37;;;;;;;8.02;6.55;;;6.70;99.90;;;;;;5072757;28;20025;-87
2021/10/10 03:58:04;;;;;;;7.53;6.40;;;6.70;99.90;;;;;;5073850;28;20068;-87
2021/10/10 04:00:31;;;;;;;7.75;6.15;;;6.60;99.90;;;;;;5055849;28;20029;-88
2021/10/10 04:03:00;;;;;;;8.07;6.32;;;6.70;99.90;;;;;;5039579;28;20048;-87
2021/10/10 04:07:58;;;;;;;8.50;6.30;;;6.60;99.90;;;;;;5074789;28;20119;-87
2021/10/10 04:10:25;;;;;;;8.50;6.22;;;6.60;99.90;;;;;;5055936;28;20451;-88
2021/10/10 04:12:51;;;;;;;8.68;7.18;;;6.70;99.90;;;;;;5039451;28;20046;-88
2021/10/10 04:15:17;;;;;;;8.35;6.80;;;6.60;99.90;;;;;;5059383;28;20063;-87
2021/10/10 04:17:44;;;;;;;8.18;6.22;;;6.60;99.90;;;;;;5076933;28;20029;-87
2021/10/10 04:20:12;;;;;;;8.95;6.97;;;6.60;99.90;;;;;;5059845;28;20032;-87
2021/10/10 04:22:39;;;;;;;8.50;7.05;;;6.60;99.90;;;;;;5060228;28;20028;-88
2021/10/10 04:25:05;;;;;;;8.95;6.90;;;6.60;99.90;;;;;;5059944;28;20028;-85
2021/10/10 04:28:04;;;;;;;11.00;8.18;;;6.60;99.90;;;;;;5063692;28;20033;-86
2021/10/10 04:30:39;;;;;;;8.40;7.00;;;6.60;99.90;;;;;;5075825;28;20111;-88
2021/10/10 04:33:04;;;;;;;11.55;8.05;;;6.60;99.90;;;;;;5076618;28;20102;-87
2021/10/10 04:35:30;;;;;;;10.63;8.15;;;6.50;99.90;;;;;;5076617;28;20027;-87
2021/10/10 04:37:56;;;;;;;9.80;7.20;;;6.50;99.90;;;;;;5076508;28;20119;-87
2021/10/10 04:40:22;;;;;;;10.80;7.68;;;6.50;99.90;;;;;;5079791;28;20086;-86
2021/10/10 04:42:48;;;;;;;9.90;7.30;;;6.50;99.90;;;;;;5079882;28;20468;-88
2021/10/10 04:45:14;;;;;;;11.15;8.45;;;6.50;99.90;;;;;;5076600;28;20033;-87
2021/10/10 04:47:40;;;;;;;10.63;8.25;;;6.50;99.90;;;;;;5059834;28;20086;-87
2021/10/10 04:50:06;;;;;;;11.10;8.40;;;6.50;99.90;;;;;;5059732;28;20398;-87
2021/10/10 04:52:32;;;;;;;12.98;8.77;;;6.40;99.90;;;;;;5043048;28;20401;-87
2021/10/10 04:54:58;;;;;;;13.02;8.98;;;6.40;99.90;;;;;;5076347;28;20059;-88
2021/10/10 04:57:24;;;;;;;13.95;9.40;;;6.40;99.90;;;;;;5076222;28;20479;-88
2021/10/10 04:59:51;;;;;;;14.02;9.77;;;6.40;99.90;;;;;;5042885;28;20029;-87
2021/10/10 05:02:22;;;;;;;14.00;9.93;;;6.40;99.90;;;;;;5076040;28;20468;-87
2021/10/10 05:04:49;;;;;;;14.10;9.65;;;6.30;99.90;;;;;;5059473;28;20028;-87
2021/10/10 05:07:15;;;;;;;13.35;9.13;;;6.30;99.90;;;;;;5059401;28;20031;-87
2021/10/10 05:09:41;;;;;;;13.55;10.25;;;6.30;99.90;;;;;;5059187;28;20071;-87
2021/10/10 05:12:07;;;;;;;12.75;9.57;;;6.30;99.90;;;;;;5077120;28;20079;-87
2021/10/10 05:14:33;;;;;;;11.95;9.38;;;6.30;99.90;;;;;;5075719;28;20028;-87
2021/10/10 05:16:58;;;;;;;12.73;9.18;;;6.20;99.90;;;;;;5076042;28;20035;-87
2021/10/10 05:19:24;;;;;;;12.50;9.48;;;6.30;99.90;;;;;;5076332;28;20029;-87
2021/10/10 05:21:51;;;;;;;13.48;10.13;;;6.30;99.90;;;;;;5058904;28;20129;-87
2021/10/10 05:24:17;;;;;;;14.63;10.02;;;6.30;99.90;;;;;;5059992;28;20032;-88
2021/10/10 05:26:44;;;;;;;13.80;9.95;;;6.20;99.90;;;;;;5041756;28;20120;-87
2021/10/10 05:29:12;;;;;;;13.02;10.15;;;6.20;99.90;;;;;;5075830;28;20092;-87
2021/10/10 05:31:37;;;;;;;14.35;10.32;;;6.20;99.90;;;;;;5076857;28;20036;-88
2021/10/10 05:34:03;;;;;;;13.90;10.07;;;6.20;99.90;;;;;;5075752;28;20028;-87
2021/10/10 05:36:28;;;;;;;14.60;10.77;;;6.20;99.90;;;;;;5075737;28;20048;-87
2021/10/10 05:38:58;;;;;;;14.70;10.63;;;6.10;99.90;;;;;;5075564;28;20123;-88
2021/10/10 05:41:25;;;;;;;16.40;11.20;;;6.10;99.90;;;;;;5075518;28;20390;-88
2021/10/10 05:43:52;;;;;;;15.32;10.88;;;6.10;99.90;;;;;;5058710;28;20029;-87
2021/10/10 05:46:17;;;;;;;15.02;10.90;;;6.10;99.90;;;;;;5075285;28;20032;-87
2021/10/10 05:48:43;;;;;;;13.90;10.45;;;6.10;99.90;;;;;;5075453;28;20490;-87
2021/10/10 05:51:09;;;;;;;15.23;10.88;;;6.10;99.90;;;;;;5075619;28;20041;-87
2021/10/10 05:53:36;;;;;;;15.10;11.45;;;6.10;99.90;;;;;;5059096;28;20033;-87
2021/10/10 05:56:03;;;;;;;14.60;11.00;;;6.10;99.90;;;;;;5075059;28;20043;-87
2021/10/10 05:58:32;;;;;;;15.75;11.20;;;6.10;99.90;;;;;;5058713;28;20025;-87
2021/10/10 06:01:01;;;;;;;16.02;11.43;;;6.10;99.90;;;;;;5076151;28;20051;-87
2021/10/10 06:03:26;;;;;;;17.00;11.57;;;6.10;99.90;;;;;;5058597;28;20407;-86
2021/10/10 06:05:52;;;;;;;14.88;10.77;;;6.20;99.90;;;;;;5074879;28;20024;-87
2021/10/10 06:08:19;;;;;;;14.70;11.02;;;6.20;99.90;;;;;;5058299;28;20063;-87
2021/10/10 06:10:46;;;;;;;15.57;12.02;;;6.20;99.90;;;;;;5057559;28;20055;-87
2021/10/10 06:13:12;;;;;;;15.90;11.13;;;6.30;99.90;;;;;;5057954;28;20078;-88
2021/10/10 06:15:39;;;;;;;16.10;11.93;;;6.30;99.90;;;;;;5074390;28;20020;-88
2021/10/10 06:18:09;;;;;;;16.90;11.30;;;6.30;99.90;;;;;;5059068;28;20469;-88
2021/10/10 06:20:36;;;;;;;14.20;10.35;;;6.40;99.90;;;;;;5056878;28;20093;-89
2021/10/10 06:23:02;;;;;;;14.70;9.25;;;6.40;99.90;;;;;;5055493;28;20029;-88
2021/10/10 06:25:28;;;;;;;12.95;10.20;;;6.50;99.90;;;;;;5058081;28;20025;-88
2021/10/10 06:27:56;;;;;;;13.43;10.48;;;6.50;99.90;;;;;;5054939;28;20159;-88
2021/10/10 06:30:23;;;;;;;12.77;9.95;;;6.50;99.90;;;;;;5074106;28;20524;-88
2021/10/10 06:32:49;;;;;;;13.43;10.57;;;6.60;99.90;;;;;;5057932;28;20024;-88
2021/10/10 06:35:15;;;;;;;14.07;10.55;;;6.60;99.90;;;;;;5074568;28;20480;-88
2021/10/10 06:37:41;;;;;;;13.52;10.23;;;6.60;99.90;;;;;;5074421;28;20029;-90
2021/10/10 06:40:07;;;;;;;12.30;10.38;;;6.60;99.90;;;;;;5075484;28;20039;-89
2021/10/10 06:42:32;;;;;;;14.52;11.55;;;6.70;99.90;;;;;;5074217;28;20094;-88
2021/10/10 06:44:58;;;;;;;14.95;11.38;;;6.70;99.90;;;;;;5075346;28;20036;-88
2021/10/10 06:47:24;;;;;;;13.10;11.02;;;6.70;99.90;;;;;;5075260;28;20034;-88
2021/10/10 06:49:50;;;;;;;13.65;10.70;;;6.80;99.90;;;;;;5075091;28;20032;-88
2021/10/10 06:52:15;;;;;;;13.88;10.80;;;6.90;99.90;;;;;;5071557;28;20029;-87
2021/10/10 06:54:43;;;;;;;13.90;10.90;;;6.90;99.90;;;;;;5074079;28;20028;-87
2021/10/10 06:57:08;;;;;;;12.00;9.82;;;6.90;99.90;;;;;;5071902;28;20020;-87
2021/10/10 06:59:34;;;;;;;14.40;10.15;;;7.00;99.90;;;;;;5072422;28;20432;-86
2021/10/10 07:02:00;;;;;;;14.73;11.10;;;7.10;99.90;;;;;;5073144;28;20127;-88
2021/10/10 07:04:26;;;;;;;14.90;11.00;;;7.10;99.90;;;;;;5039388;28;20532;-87
2021/10/10 07:06:52;;;;;;;17.20;10.48;;;7.20;99.90;;;;;;5054787;28;20064;-87
2021/10/10 07:09:17;;;;;;;11.55;9.50;;;7.20;99.90;;;;;;5055044;28;20030;-87
2021/10/10 07:11:44;;;;;;;14.02;10.07;;;7.30;99.90;;;;;;5054718;28;20052;-87
2021/10/10 07:14:10;;;;;;;14.15;10.45;;;7.30;99.90;;;;;;5055390;28;20029;-88
2021/10/10 07:16:36;;;;;;;13.18;10.90;;;7.40;99.90;;;;;;5071799;28;20025;-87
2021/10/10 07:19:02;;;;;;;15.75;10.70;;;7.50;99.90;;;;;;5038523;28;20055;-89
2021/10/10 07:22:14;;;;;;;12.55;10.23;;;7.60;99.90;;;;;;5055127;28;20037;-87
2021/10/10 07:26:58;;;;;;;11.95;9.77;;;7.80;99.90;;;;;;5072643;28;20051;-87
2021/10/10 07:29:24;;;;;;;12.75;11.02;;;8.00;99.90;;;;;;5071324;28;20021;-87
2021/10/10 07:31:50;;;;;;;12.82;9.98;;;8.10;99.90;;;;;;5071156;28;20024;-87
2021/10/10 07:34:18;;;;;;;12.15;9.90;;;8.20;99.90;;;;;;5071680;28;20406;-87
2021/10/10 07:36:43;;;;;;;12.98;10.63;;;8.20;99.90;;;;;;5054652;28;20119;-87
2021/10/10 07:39:09;;;;;;;17.48;10.85;;;8.30;99.90;;;;;;5071588;28;20244;-87
2021/10/10 07:41:38;;;;;;;14.07;11.00;;;8.30;99.90;;;;;;5072210;28;20066;-88
2021/10/10 07:44:06;;;;;;;13.10;10.98;;;8.40;99.90;;;;;;5072330;28;20052;-87
2021/10/10 07:46:34;;;;;;;15.43;11.02;;;8.50;99.90;;;;;;5072142;28;20464;-87
2021/10/10 07:48:59;;;;;;;14.40;11.32;;;8.60;99.90;;;;;;5072040;28;20411;-87
2021/10/10 07:51:28;;;;;;;15.75;12.63;;;8.80;99.90;;;;;;5070884;28;20170;-87
2021/10/10 07:53:55;;;;;;;15.98;13.10;;;8.90;99.90;;;;;;5054927;28;20107;-89
2021/10/10 07:56:21;;;;;;;17.73;14.40;;;9.00;99.90;;;;;;5070729;28;20033;-88
2021/10/10 07:58:47;;;;;;;16.95;14.52;;;8.90;99.90;;;;;;5072603;28;20116;-87
2021/10/10 08:01:14;;;;;;;13.93;11.70;;;8.90;99.90;;;;;;5054608;28;20115;-87
2021/10/10 08:03:40;;;;;;;15.77;12.82;;;9.00;99.90;;;;;;5071219;28;20094;-87
2021/10/10 08:06:06;;;;;;;15.35;12.65;;;9.00;99.90;;;;;;5054446;28;20024;-87
2021/10/10 08:08:31;;;;;;;18.23;14.60;;;9.10;99.90;;;;;;5072019;28;20036;-87
2021/10/10 08:10:57;;;;;;;17.70;14.35;;;9.30;99.90;;;;;;5037026;28;20077;-88
2021/10/10 08:13:23;;;;;;;17.20;13.95;;;9.30;99.90;;;;;;5071972;28;20474;-86
2021/10/10 08:15:49;;;;;;;14.93;12.73;;;9.40;99.90;;;;;;5054036;28;20036;-87
2021/10/10 08:18:16;;;;;;;15.23;13.50;;;9.60;99.90;;;;;;5070886;28;20522;-87
2021/10/10 08:20:42;;;;;;;15.52;13.32;;;9.70;99.90;;;;;;5053616;28;20346;-86
2021/10/10 08:23:09;;;;;;;20.00;16.38;;;9.80;99.90;;;;;;5067623;28;20125;-87
2021/10/10 08:25:35;;;;;;;22.02;16.05;;;9.90;99.90;;;;;;5070167;28;20123;-87
2021/10/10 08:28:01;;;;;;;20.17;16.27;;;9.90;99.90;;;;;;5036986;28;20043;-88
2021/10/10 08:30:27;;;;;;;17.85;14.55;;;9.90;99.90;;;;;;5053477;28;20119;-87
2021/10/10 08:32:53;;;;;;;18.73;14.82;;;9.90;99.90;;;;;;5049271;28;20029;-88
2021/10/10 08:35:19;;;;;;;18.55;14.23;;;10.10;99.90;;;;;;5051248;28;20037;-88
2021/10/10 08:37:45;;;;;;;18.83;14.73;;;10.10;99.90;;;;;;5049039;28;20068;-88
2021/10/10 08:40:13;;;;;;;19.23;15.35;;;10.10;99.90;;;;;;5033716;28;20258;-88
2021/10/10 08:42:43;;;;;;;17.55;13.23;;;10.20;99.90;;;;;;5067145;28;20175;-88
2021/10/10 08:45:17;;;;;;;18.85;13.93;;;10.30;99.90;;;;;;5049837;28;20029;-88
2021/10/10 08:47:45;;;;;;;19.08;15.05;;;10.40;99.90;;;;;;5050393;28;20029;-88
2021/10/10 08:50:21;;;;;;;19.45;16.35;;;10.60;99.90;;;;;;5050526;28;20029;-88
2021/10/10 08:52:52;;;;;;;21.15;18.08;;;10.70;99.90;;;;;;5067159;28;20167;-88
2021/10/10 08:55:18;;;;;;;23.33;18.83;;;10.80;99.90;;;;;;5071380;28;20036;-89
2021/10/10 08:57:45;;;;;;;22.67;19.00;;;10.80;99.90;;;;;;5036626;28;20029;-89
2021/10/10 09:00:32;;;;;;;20.52;16.80;;;10.90;99.90;;;;;;5037345;28;20036;-88
2021/10/10 09:03:08;;;;;;;22.42;18.50;;;11.10;99.90;;;;;;5029126;28;20036;-88
2021/10/10 09:05:35;;;;;;;24.75;20.05;;;11.50;99.90;;;;;;5056800;28;20029;-89
2021/10/10 09:08:01;;;;;;;29.42;23.30;;;11.70;99.90;;;;;;5041351;28;20465;-88
2021/10/10 09:10:31;;;;;;;25.55;20.08;;;12.00;99.90;;;;;;5024640;28;20078;-87
2021/10/10 09:13:11;;;;;;;24.65;19.05;;;12.70;99.90;;;;;;5056299;28;20131;-88
2021/10/10 09:15:40;;;;;;;22.10;17.60;;;13.40;99.90;;;;;;5056884;28;20048;-87
2021/10/10 09:18:07;;;;;;;22.20;18.77;;;13.70;99.90;;;;;;5057255;28;20032;-88
2021/10/10 09:20:37;;;;;;;20.48;16.33;;;13.90;99.90;;;;;;5073280;28;20044;-88
2021/10/10 09:23:07;;;;;;;21.83;16.98;;;14.00;99.90;;;;;;5073125;28;20044;-88
2021/10/10 09:25:36;;;;;;;19.83;15.82;;;14.20;99.90;;;;;;5055925;28;20141;-88
2021/10/10 09:28:23;;;;;;;27.65;21.30;;;14.50;99.90;;;;;;5073115;28;20456;-88
2021/10/10 09:30:53;;;;;;;25.10;20.02;;;14.80;99.90;;;;;;5057404;28;20614;-88
2021/10/10 09:33:42;;;;;;;21.55;17.33;;;15.00;99.90;;;;;;5061504;28;20029;-88
2021/10/10 09:36:18;;;;;;;21.75;17.50;;;15.00;99.90;;;;;;5061361;28;20028;-88
2021/10/10 09:44:18;;;;;;;18.05;15.20;;;16.00;99.90;;;;;;5074440;28;20060;-89
2021/10/10 09:46:45;;;;;;;17.35;14.45;;;16.90;99.90;;;;;;5056256;28;20120;-89
2021/10/10 09:49:32;;;;;;;18.38;16.00;;;17.80;99.90;;;;;;5073474;28;20051;-88
2021/10/10 09:52:07;;;;;;;19.38;16.20;;;18.20;99.90;;;;;;5074342;28;20033;-88
2021/10/10 09:54:57;;;;;;;17.88;14.65;;;17.50;99.90;;;;;;5075401;28;20083;-89
2021/10/10 09:57:25;;;;;;;18.05;13.77;;;17.20;99.90;;;;;;5073803;28;20032;-89
2021/10/10 09:59:54;;;;;;;16.20;13.85;;;17.30;99.90;;;;;;5073958;28;20040;-89
2021/10/10 10:02:46;;;;;;;16.60;14.50;;;17.70;99.90;;;;;;5056703;28;20119;-88
2021/10/10 10:05:30;;;;;;;15.93;13.23;;;18.00;99.90;;;;;;5056985;28;20040;-88
2021/10/10 10:07:57;;;;;;;15.10;12.63;;;18.30;99.90;;;;;;5055389;28;20048;-89
2021/10/10 10:10:25;;;;;;;19.05;15.13;;;18.80;99.90;;;;;;5056491;28;20038;-89
2021/10/10 10:12:52;;;;;;;15.85;13.90;;;19.70;99.90;;;;;;5056320;28;20048;-88
2021/10/10 10:15:20;;;;;;;14.75;12.85;;;20.70;99.90;;;;;;5058446;28;20488;-89
2021/10/10 10:17:47;;;;;;;16.30;14.52;;;21.30;99.90;;;;;;5057651;28;20041;-89
2021/10/10 10:20:15;;;;;;;16.23;12.45;;;21.80;99.90;;;;;;5055718;28;20518;-88
2021/10/10 10:22:43;;;;;;;15.40;11.52;;;22.40;99.90;;;;;;5055603;28;20033;-89
2021/10/10 10:25:15;;;;;;;12.55;10.35;;;22.90;99.90;;;;;;5070924;28;20035;-90
2021/10/10 10:27:44;;;;;;;14.25;11.60;;;23.40;99.90;;;;;;5039244;28;20039;-90
2021/10/10 10:30:10;;;;;;;13.88;11.20;;;23.60;99.90;;;;;;5071769;28;20067;-88
2021/10/10 10:32:38;;;;;;;13.20;11.63;;;23.80;99.90;;;;;;5074155;28;20040;-89
2021/10/10 10:35:13;;;;;;;12.68;10.85;;;23.80;99.90;;;;;;5056588;28;20041;-90
2021/10/10 10:37:45;;;;;;;13.68;11.60;;;24.00;99.90;;;;;;5056343;28;20031;-90
2021/10/10 10:40:19;;;;;;;13.10;10.00;;;24.20;99.90;;;;;;5055650;28;20098;-89
2021/10/10 10:43:07;;;;;;;13.20;11.30;;;24.50;99.90;;;;;;5072710;28;20068;-89
2021/10/10 10:45:41;;;;;;;14.60;11.23;;;24.50;99.90;;;;;;5071720;28;20109;-89
2021/10/10 10:48:35;;;;;;;14.32;12.45;;;24.60;99.90;;;;;;5035488;28;20429;-89
2021/10/10 10:51:30;;;;;;;15.27;13.18;;;24.50;99.90;;;;;;5045928;28;20033;-89
2021/10/10 10:54:35;;;;;;;14.00;12.43;;;24.60;99.90;;;;;;5053203;28;20110;-89
2021/10/10 10:57:29;;;;;;;13.50;11.75;;;24.50;99.90;;;;;;5054791;28;20469;-89
2021/10/10 11:00:21;;;;;;;17.92;15.10;;;24.30;99.90;;;;;;5055038;28;20496;-89
2021/10/10 11:02:55;;;;;;;16.65;13.95;;;24.40;99.40;;;;;;5051182;28;20100;-89
2021/10/10 11:05:35;;;;;;;15.50;13.20;;;24.40;99.50;;;;;;5036619;28;20033;-89
2021/10/10 11:08:29;;;;;;;13.73;12.07;;;24.50;99.10;;;;;;5054780;28;20028;-88
2021/10/10 11:11:10;;;;;;;14.32;12.27;;;24.40;99.30;;;;;;5052238;28;20420;-88
2021/10/10 11:13:43;;;;;;;14.65;12.98;;;24.50;99.00;;;;;;5033775;28;20064;-88
2021/10/10 11:16:14;;;;;;;12.60;11.25;;;25.00;98.80;;;;;;5033417;28;20039;-88
2021/10/10 11:19:12;;;;;;;11.30;9.98;;;25.20;98.40;;;;;;5018107;28;20114;-89
2021/10/10 11:21:43;;;;;;;13.48;11.30;;;25.70;98.10;;;;;;5034631;28;20130;-88
2021/10/10 11:24:21;;;;;;;12.80;9.75;;;26.00;97.70;;;;;;5034065;28;20065;-89
2021/10/10 11:26:49;;;;;;;11.75;9.88;;;26.50;97.20;;;;;;5001386;28;20029;-88
2021/10/10 11:29:19;;;;;;;13.98;10.63;;;26.80;96.70;;;;;;5017175;28;20053;-88
2021/10/10 11:31:50;;;;;;;12.45;9.43;;;27.10;96.00;;;;;;5034423;28;20045;-89
2021/10/10 11:34:24;;;;;;;12.43;9.65;;;27.10;95.60;;;;;;5000400;28;20041;-89
2021/10/10 11:36:54;;;;;;;13.70;11.88;;;27.40;95.00;;;;;;5016573;28;20029;-89
2021/10/10 11:39:28;;;;;;;11.93;9.27;;;27.80;94.00;;;;;;5032822;28;20033;-89
2021/10/10 11:42:00;;;;;;;10.02;8.38;;;27.90;93.80;;;;;;5016754;28;20071;-89
2021/10/10 11:44:44;;;;;;;13.15;9.43;;;28.00;93.10;;;;;;5016363;28;20053;-89
2021/10/10 11:47:29;;;;;;;11.15;9.52;;;28.10;93.10;;;;;;5034209;28;20123;-89
2021/10/10 11:50:00;;;;;;;12.85;9.93;;;28.00;92.90;;;;;;5016397;28;20033;-88
2021/10/10 11:52:31;;;;;;;12.27;10.23;;;27.80;92.70;;;;;;5015369;28;20033;-89
2021/10/10 11:55:25;;;;;;;15.30;11.77;;;27.70;92.60;;;;;;5031399;28;20091;-89
2021/10/10 11:57:57;;;;;;;12.35;10.88;;;27.90;92.20;;;;;;5031958;28;20029;-89
2021/10/10 12:00:47;;;;;;;12.73;10.07;;;28.00;92.00;;;;;;5032254;28;20024;-90
2021/10/10 12:03:15;;;;;;;13.27;11.35;;;28.20;91.50;;;;;;4998946;28;20041;-88
2021/10/10 12:05:44;;;;;;;11.48;10.00;;;28.10;90.90;;;;;;5015598;28;20045;-90
2021/10/10 12:08:23;;;;;;;12.00;9.20;;;27.90;91.20;;;;;;5015070;28;20470;-87
2021/10/10 12:10:52;;;;;;;12.60;10.05;;;27.80;91.70;;;;;;5032926;28;20032;-89
2021/10/10 12:13:21;;;;;;;12.05;10.15;;;27.20;92.20;;;;;;5051905;28;20057;-88
2021/10/10 12:16:01;;;;;;;11.77;9.60;;;26.80;92.80;;;;;;5051569;28;20067;-89
2021/10/10 12:18:30;;;;;;;12.45;10.15;;;26.30;92.40;;;;;;5034843;28;20024;-89
2021/10/10 12:21:19;;;;;;;12.25;10.95;;;26.30;92.50;;;;;;5051507;28;20116;-88
2021/10/10 12:23:45;;;;;;;13.95;11.90;;;26.20;92.00;;;;;;5052000;28;20052;-89
2021/10/10 12:26:11;;;;;;;14.65;11.20;;;26.50;91.80;;;;;;5051563;28;20032;-88
2021/10/10 12:28:38;;;;;;;15.00;12.45;;;26.90;91.30;;;;;;5053705;28;20480;-88
2021/10/10 12:31:05;;;;;;;15.40;12.48;;;27.30;90.70;;;;;;5037874;28;20528;-89
2021/10/10 12:33:42;;;;;;;11.48;10.27;;;27.40;90.20;;;;;;5053927;28;20041;-89
2021/10/10 12:36:16;;;;;;;15.50;10.65;;;27.50;90.40;;;;;;5056167;28;20380;-86
2021/10/10 12:38:54;;;;;;;14.43;11.57;;;27.30;90.00;;;;;;5075678;28;20033;-86
2021/10/10 12:41:20;;;;;;;12.85;10.50;;;26.30;87.90;;;;;;5055949;28;20032;-89
2021/10/10 12:44:03;;;;;;;13.13;10.57;;;25.70;90.10;;;;;;5077761;28;20279;-88
2021/10/10 12:46:51;;;;;;;13.25;10.27;;;25.90;90.20;;;;;;5076541;28;20039;-88
2021/10/10 12:49:37;;;;;;;14.70;11.43;;;25.50;89.60;;;;;;5075717;28;20032;-88
2021/10/10 12:52:09;;;;;;;14.05;11.38;;;25.50;90.10;;;;;;5058550;28;20036;-88
2021/10/10 12:54:42;;;;;;;14.20;10.65;;;25.10;90.20;;;;;;5064443;28;20059;-88
2021/10/10 12:57:17;;;;;;;14.15;11.30;;;24.60;90.80;;;;;;5075819;28;20082;-88
2021/10/10 13:00:03;;;;;;;13.80;12.30;;;24.30;91.30;;;;;;5073907;28;20079;-88